sensor_id;sensor_type;location;lat;lon;timestamp;P1;durP1;ratioP1;P2;durP2;ratioP2
25359;SDS011;13311;51.386;0.016;2023-02-01T00:04:30;17.73;;;4.57;;
25359;SDS011;13311;51.386;0.016;2023-02-01T00:09:31;18.50;;;4.80;;
25359;SDS011;13311;51.386;0.016;2023-02-01T00:14:32;21.35;;;5.70;;
25359;SDS011;13311;51.386;0.016;2023-02-01T00:19:38;24.08;;;5.18;;
25359;SDS011;13311;51.386;0.016;2023-02-01T00:24:38;20.65;;;5.50;;
25359;SDS011;13311;51.386;0.016;2023-02-01T00:29:39;22.55;;;5.80;;
25359;SDS011;13311;51.386;0.016;2023-02-01T00:34:40;21.85;;;5.50;;
25359;SDS011;13311;51.386;0.016;2023-02-01T00:39:40;27.08;;;4.70;;
25359;SDS011;13311;51.386;0.016;2023-02-01T00:44:41;26.45;;;5.57;;
25359;SDS011;13311;51.386;0.016;2023-02-01T00:49:42;29.02;;;5.55;;
25359;SDS011;13311;51.386;0.016;2023-02-01T00:54:42;34.63;;;6.45;;
25359;SDS011;13311;51.386;0.016;2023-02-01T00:59:43;27.58;;;6.60;;
25359;SDS011;13311;51.386;0.016;2023-02-01T01:04:44;28.60;;;5.00;;
25359;SDS011;13311;51.386;0.016;2023-02-01T01:09:45;21.77;;;5.55;;
25359;SDS011;13311;51.386;0.016;2023-02-01T01:14:46;21.40;;;5.32;;
25359;SDS011;13311;51.386;0.016;2023-02-01T01:19:47;20.67;;;4.63;;
25359;SDS011;13311;51.386;0.016;2023-02-01T01:24:47;17.23;;;4.78;;
25359;SDS011;13311;51.386;0.016;2023-02-01T01:29:49;20.63;;;5.13;;
25359;SDS011;13311;51.386;0.016;2023-02-01T01:34:50;20.63;;;4.40;;
25359;SDS011;13311;51.386;0.016;2023-02-01T01:39:50;17.83;;;5.22;;
25359;SDS011;13311;51.386;0.016;2023-02-01T01:44:59;21.30;;;5.43;;
25359;SDS011;13311;51.386;0.016;2023-02-01T01:50:19;21.33;;;5.07;;
25359;SDS011;13311;51.386;0.016;2023-02-01T01:55:30;19.35;;;4.85;;
25359;SDS011;13311;51.386;0.016;2023-02-01T02:00:35;24.40;;;4.93;;
25359;SDS011;13311;51.386;0.016;2023-02-01T02:05:37;22.60;;;5.20;;
25359;SDS011;13311;51.386;0.016;2023-02-01T02:10:38;16.63;;;4.20;;
25359;SDS011;13311;51.386;0.016;2023-02-01T02:16:02;19.58;;;4.45;;
25359;SDS011;13311;51.386;0.016;2023-02-01T02:43:28;23.33;;;4.75;;
25359;SDS011;13311;51.386;0.016;2023-02-01T02:54:35;20.73;;;5.47;;
25359;SDS011;13311;51.386;0.016;2023-02-01T02:59:46;19.90;;;4.97;;
25359;SDS011;13311;51.386;0.016;2023-02-01T03:05:06;28.92;;;4.65;;
25359;SDS011;13311;51.386;0.016;2023-02-01T03:10:08;23.05;;;5.75;;
25359;SDS011;13311;51.386;0.016;2023-02-01T03:15:41;25.20;;;4.78;;
25359;SDS011;13311;51.386;0.016;2023-02-01T03:20:54;19.50;;;4.90;;
25359;SDS011;13311;51.386;0.016;2023-02-01T03:25:58;15.73;;;4.10;;
25359;SDS011;13311;51.386;0.016;2023-02-01T03:31:02;23.40;;;4.78;;
25359;SDS011;13311;51.386;0.016;2023-02-01T03:46:39;19.92;;;5.13;;
25359;SDS011;13311;51.386;0.016;2023-02-01T03:51:46;18.77;;;4.10;;
25359;SDS011;13311;51.386;0.016;2023-02-01T03:56:48;15.65;;;3.95;;
25359;SDS011;13311;51.386;0.016;2023-02-01T04:01:51;18.30;;;4.88;;
25359;SDS011;13311;51.386;0.016;2023-02-01T04:06:52;12.93;;;3.53;;
25359;SDS011;13311;51.386;0.016;2023-02-01T04:11:53;14.73;;;4.03;;
25359;SDS011;13311;51.386;0.016;2023-02-01T04:16:54;18.42;;;4.70;;
25359;SDS011;13311;51.386;0.016;2023-02-01T04:21:54;15.00;;;4.03;;
25359;SDS011;13311;51.386;0.016;2023-02-01T04:26:55;17.77;;;4.30;;
25359;SDS011;13311;51.386;0.016;2023-02-01T04:31:56;16.88;;;3.78;;
25359;SDS011;13311;51.386;0.016;2023-02-01T04:36:57;16.50;;;4.63;;
25359;SDS011;13311;51.386;0.016;2023-02-01T04:41:57;17.30;;;4.63;;
25359;SDS011;13311;51.386;0.016;2023-02-01T04:46:58;12.55;;;3.67;;
25359;SDS011;13311;51.386;0.016;2023-02-01T04:51:59;18.48;;;3.65;;
25359;SDS011;13311;51.386;0.016;2023-02-01T04:56:59;13.25;;;4.30;;
25359;SDS011;13311;51.386;0.016;2023-02-01T05:02:00;17.65;;;4.72;;
25359;SDS011;13311;51.386;0.016;2023-02-01T05:07:01;17.50;;;3.83;;
25359;SDS011;13311;51.386;0.016;2023-02-01T05:12:02;12.63;;;3.55;;
25359;SDS011;13311;51.386;0.016;2023-02-01T05:17:22;18.20;;;3.65;;
25359;SDS011;13311;51.386;0.016;2023-02-01T05:22:23;15.23;;;4.03;;
25359;SDS011;13311;51.386;0.016;2023-02-01T05:27:24;17.35;;;4.32;;
25359;SDS011;13311;51.386;0.016;2023-02-01T05:32:24;21.42;;;4.32;;
25359;SDS011;13311;51.386;0.016;2023-02-01T05:37:25;20.38;;;3.78;;
25359;SDS011;13311;51.386;0.016;2023-02-01T05:42:26;14.98;;;4.35;;
25359;SDS011;13311;51.386;0.016;2023-02-01T05:47:27;18.83;;;3.97;;
25359;SDS011;13311;51.386;0.016;2023-02-01T05:52:28;24.20;;;4.75;;
25359;SDS011;13311;51.386;0.016;2023-02-01T05:57:28;26.65;;;5.28;;
25359;SDS011;13311;51.386;0.016;2023-02-01T06:02:30;21.70;;;3.95;;
25359;SDS011;13311;51.386;0.016;2023-02-01T06:07:30;21.30;;;4.13;;
25359;SDS011;13311;51.386;0.016;2023-02-01T06:12:32;15.25;;;4.50;;
25359;SDS011;13311;51.386;0.016;2023-02-01T06:17:33;17.08;;;3.75;;
25359;SDS011;13311;51.386;0.016;2023-02-01T06:22:33;21.95;;;4.18;;
25359;SDS011;13311;51.386;0.016;2023-02-01T06:27:35;19.23;;;4.18;;
25359;SDS011;13311;51.386;0.016;2023-02-01T06:32:37;13.23;;;3.95;;
25359;SDS011;13311;51.386;0.016;2023-02-01T06:37:39;19.58;;;4.05;;
25359;SDS011;13311;51.386;0.016;2023-02-01T06:42:39;24.98;;;4.45;;
25359;SDS011;13311;51.386;0.016;2023-02-01T06:47:40;13.77;;;4.30;;
25359;SDS011;13311;51.386;0.016;2023-02-01T06:52:42;15.60;;;3.45;;
25359;SDS011;13311;51.386;0.016;2023-02-01T06:57:42;21.83;;;4.40;;
25359;SDS011;13311;51.386;0.016;2023-02-01T07:02:43;14.65;;;3.42;;
25359;SDS011;13311;51.386;0.016;2023-02-01T07:07:44;16.50;;;4.10;;
25359;SDS011;13311;51.386;0.016;2023-02-01T07:12:45;20.15;;;4.50;;
25359;SDS011;13311;51.386;0.016;2023-02-01T07:17:46;23.60;;;4.85;;
25359;SDS011;13311;51.386;0.016;2023-02-01T07:22:54;18.90;;;3.72;;
25359;SDS011;13311;51.386;0.016;2023-02-01T07:27:57;23.67;;;4.43;;
25359;SDS011;13311;51.386;0.016;2023-02-01T07:32:59;21.10;;;4.30;;
25359;SDS011;13311;51.386;0.016;2023-02-01T07:38:01;15.15;;;3.53;;
25359;SDS011;13311;51.386;0.016;2023-02-01T07:43:01;25.15;;;4.63;;
25359;SDS011;13311;51.386;0.016;2023-02-01T07:48:02;15.88;;;3.75;;
25359;SDS011;13311;51.386;0.016;2023-02-01T07:53:03;14.27;;;3.38;;
25359;SDS011;13311;51.386;0.016;2023-02-01T07:58:04;21.70;;;4.25;;
25359;SDS011;13311;51.386;0.016;2023-02-01T08:03:05;13.00;;;3.63;;
25359;SDS011;13311;51.386;0.016;2023-02-01T08:08:05;12.40;;;3.95;;
25359;SDS011;13311;51.386;0.016;2023-02-01T08:13:07;20.27;;;4.45;;
25359;SDS011;13311;51.386;0.016;2023-02-01T08:18:09;22.75;;;5.07;;
25359;SDS011;13311;51.386;0.016;2023-02-01T08:23:11;22.88;;;5.05;;
25359;SDS011;13311;51.386;0.016;2023-02-01T08:28:12;21.27;;;5.10;;
25359;SDS011;13311;51.386;0.016;2023-02-01T08:33:13;19.02;;;3.90;;
25359;SDS011;13311;51.386;0.016;2023-02-01T08:38:14;17.50;;;4.45;;
25359;SDS011;13311;51.386;0.016;2023-02-01T08:43:15;21.25;;;4.82;;
25359;SDS011;13311;51.386;0.016;2023-02-01T08:48:15;24.05;;;5.20;;
25359;SDS011;13311;51.386;0.016;2023-02-01T08:53:16;28.08;;;5.28;;
25359;SDS011;13311;51.386;0.016;2023-02-01T08:58:17;23.10;;;4.95;;
25359;SDS011;13311;51.386;0.016;2023-02-01T09:03:19;18.23;;;4.00;;
25359;SDS011;13311;51.386;0.016;2023-02-01T09:08:20;20.95;;;4.43;;
25359;SDS011;13311;51.386;0.016;2023-02-01T09:13:20;25.70;;;5.30;;
25359;SDS011;13311;51.386;0.016;2023-02-01T09:18:22;20.30;;;4.43;;
25359;SDS011;13311;51.386;0.016;2023-02-01T09:23:24;20.70;;;4.47;;
25359;SDS011;13311;51.386;0.016;2023-02-01T09:28:25;17.67;;;4.28;;
25359;SDS011;13311;51.386;0.016;2023-02-01T09:33:27;16.13;;;3.67;;
25359;SDS011;13311;51.386;0.016;2023-02-01T09:38:28;21.70;;;5.25;;
25359;SDS011;13311;51.386;0.016;2023-02-01T09:43:49;20.60;;;4.47;;
25359;SDS011;13311;51.386;0.016;2023-02-01T09:49:09;18.10;;;4.35;;
25359;SDS011;13311;51.386;0.016;2023-02-01T09:54:29;13.02;;;3.50;;
25359;SDS011;13311;51.386;0.016;2023-02-01T09:59:43;16.15;;;3.25;;
25359;SDS011;13311;51.386;0.016;2023-02-01T10:04:54;14.38;;;4.07;;
25359;SDS011;13311;51.386;0.016;2023-02-01T10:10:14;19.90;;;4.20;;
25359;SDS011;13311;51.386;0.016;2023-02-01T10:21:22;14.32;;;4.22;;
25359;SDS011;13311;51.386;0.016;2023-02-01T10:26:45;13.77;;;3.65;;
25359;SDS011;13311;51.386;0.016;2023-02-01T10:32:01;18.33;;;4.28;;
25359;SDS011;13311;51.386;0.016;2023-02-01T10:42:31;18.20;;;4.65;;
25359;SDS011;13311;51.386;0.016;2023-02-01T10:47:31;18.98;;;4.43;;
25359;SDS011;13311;51.386;0.016;2023-02-01T10:52:39;18.42;;;4.25;;
25359;SDS011;13311;51.386;0.016;2023-02-01T10:58:06;12.88;;;3.58;;
25359;SDS011;13311;51.386;0.016;2023-02-01T11:03:27;19.48;;;3.78;;
25359;SDS011;13311;51.386;0.016;2023-02-01T11:08:45;16.42;;;4.18;;
25359;SDS011;13311;51.386;0.016;2023-02-01T11:13:53;16.70;;;4.50;;
25359;SDS011;13311;51.386;0.016;2023-02-01T11:24:04;16.73;;;3.70;;
25359;SDS011;13311;51.386;0.016;2023-02-01T11:29:12;17.38;;;4.80;;
25359;SDS011;13311;51.386;0.016;2023-02-01T11:34:24;16.70;;;4.40;;
25359;SDS011;13311;51.386;0.016;2023-02-01T11:39:42;21.05;;;4.80;;
25359;SDS011;13311;51.386;0.016;2023-02-01T11:44:44;17.55;;;3.95;;
25359;SDS011;13311;51.386;0.016;2023-02-01T11:49:46;17.48;;;4.40;;
25359;SDS011;13311;51.386;0.016;2023-02-01T12:16:47;19.83;;;3.53;;
25359;SDS011;13311;51.386;0.016;2023-02-01T12:22:26;11.93;;;3.42;;
25359;SDS011;13311;51.386;0.016;2023-02-01T12:33:11;15.93;;;3.85;;
25359;SDS011;13311;51.386;0.016;2023-02-01T12:54:06;9.07;;;2.65;;
25359;SDS011;13311;51.386;0.016;2023-02-01T12:59:25;12.35;;;3.38;;
25359;SDS011;13311;51.386;0.016;2023-02-01T13:04:49;9.57;;;3.55;;
25359;SDS011;13311;51.386;0.016;2023-02-01T13:10:05;13.70;;;3.33;;
25359;SDS011;13311;51.386;0.016;2023-02-01T13:15:37;11.13;;;3.10;;
25359;SDS011;13311;51.386;0.016;2023-02-01T13:21:14;12.98;;;3.65;;
25359;SDS011;13311;51.386;0.016;2023-02-01T13:26:20;10.35;;;2.40;;
25359;SDS011;13311;51.386;0.016;2023-02-01T13:31:25;10.48;;;2.80;;
25359;SDS011;13311;51.386;0.016;2023-02-01T13:42:49;10.73;;;2.92;;
25359;SDS011;13311;51.386;0.016;2023-02-01T13:47:55;15.20;;;2.67;;
25359;SDS011;13311;51.386;0.016;2023-02-01T13:53:11;13.73;;;3.25;;
25359;SDS011;13311;51.386;0.016;2023-02-01T13:58:30;7.28;;;2.72;;
25359;SDS011;13311;51.386;0.016;2023-02-01T14:03:44;10.35;;;3.17;;
25359;SDS011;13311;51.386;0.016;2023-02-01T14:09:05;14.48;;;3.25;;
25359;SDS011;13311;51.386;0.016;2023-02-01T14:19:25;13.00;;;3.58;;
25359;SDS011;13311;51.386;0.016;2023-02-01T14:24:34;13.43;;;3.20;;
25359;SDS011;13311;51.386;0.016;2023-02-01T14:29:37;15.70;;;2.85;;
25359;SDS011;13311;51.386;0.016;2023-02-01T14:39:50;10.50;;;3.00;;
25359;SDS011;13311;51.386;0.016;2023-02-01T14:55:44;13.95;;;3.15;;
25359;SDS011;13311;51.386;0.016;2023-02-01T15:01:06;10.90;;;2.78;;
25359;SDS011;13311;51.386;0.016;2023-02-01T15:11:59;16.55;;;4.07;;
25359;SDS011;13311;51.386;0.016;2023-02-01T15:17:25;11.05;;;2.85;;
25359;SDS011;13311;51.386;0.016;2023-02-01T15:22:34;14.50;;;3.00;;
25359;SDS011;13311;51.386;0.016;2023-02-01T15:27:36;14.43;;;3.40;;
25359;SDS011;13311;51.386;0.016;2023-02-01T15:32:38;16.17;;;3.53;;
25359;SDS011;13311;51.386;0.016;2023-02-01T15:37:40;14.82;;;3.95;;
25359;SDS011;13311;51.386;0.016;2023-02-01T15:42:49;13.43;;;3.22;;
25359;SDS011;13311;51.386;0.016;2023-02-01T15:47:58;19.00;;;3.17;;
25359;SDS011;13311;51.386;0.016;2023-02-01T15:53:00;16.02;;;3.60;;
25359;SDS011;13311;51.386;0.016;2023-02-01T15:58:04;14.93;;;4.63;;
25359;SDS011;13311;51.386;0.016;2023-02-01T16:03:33;13.37;;;3.03;;
25359;SDS011;13311;51.386;0.016;2023-02-01T16:08:35;12.57;;;2.92;;
25359;SDS011;13311;51.386;0.016;2023-02-01T16:13:37;18.05;;;4.53;;
25359;SDS011;13311;51.386;0.016;2023-02-01T16:18:38;14.80;;;3.00;;
25359;SDS011;13311;51.386;0.016;2023-02-01T16:23:38;9.88;;;3.72;;
25359;SDS011;13311;51.386;0.016;2023-02-01T16:28:39;18.08;;;4.68;;
25359;SDS011;13311;51.386;0.016;2023-02-01T16:33:40;10.00;;;3.30;;
25359;SDS011;13311;51.386;0.016;2023-02-01T16:38:41;11.75;;;2.90;;
25359;SDS011;13311;51.386;0.016;2023-02-01T16:43:42;13.00;;;3.38;;
25359;SDS011;13311;51.386;0.016;2023-02-01T16:48:45;13.48;;;3.40;;
25359;SDS011;13311;51.386;0.016;2023-02-01T16:53:51;16.38;;;3.80;;
25359;SDS011;13311;51.386;0.016;2023-02-01T16:58:52;17.45;;;4.03;;
25359;SDS011;13311;51.386;0.016;2023-02-01T17:03:54;17.02;;;5.03;;
25359;SDS011;13311;51.386;0.016;2023-02-01T17:08:56;19.13;;;4.32;;
25359;SDS011;13311;51.386;0.016;2023-02-01T17:14:09;18.73;;;4.47;;
25359;SDS011;13311;51.386;0.016;2023-02-01T17:19:20;19.23;;;4.07;;
25359;SDS011;13311;51.386;0.016;2023-02-01T17:24:26;14.65;;;4.22;;
25359;SDS011;13311;51.386;0.016;2023-02-01T17:29:30;11.52;;;4.10;;
25359;SDS011;13311;51.386;0.016;2023-02-01T17:34:30;16.92;;;3.63;;
25359;SDS011;13311;51.386;0.016;2023-02-01T17:39:31;23.30;;;4.32;;
25359;SDS011;13311;51.386;0.016;2023-02-01T17:44:51;17.38;;;4.03;;
25359;SDS011;13311;51.386;0.016;2023-02-01T17:49:55;19.73;;;5.05;;
25359;SDS011;13311;51.386;0.016;2023-02-01T17:54:56;19.52;;;4.55;;
25359;SDS011;13311;51.386;0.016;2023-02-01T17:59:57;14.48;;;3.75;;
25359;SDS011;13311;51.386;0.016;2023-02-01T18:04:57;14.25;;;3.97;;
25359;SDS011;13311;51.386;0.016;2023-02-01T18:09:59;24.75;;;4.78;;
25359;SDS011;13311;51.386;0.016;2023-02-01T18:15:01;15.18;;;3.88;;
25359;SDS011;13311;51.386;0.016;2023-02-01T18:20:21;17.35;;;4.63;;
25359;SDS011;13311;51.386;0.016;2023-02-01T18:25:25;22.33;;;4.15;;
25359;SDS011;13311;51.386;0.016;2023-02-01T18:30:30;15.55;;;4.57;;
25359;SDS011;13311;51.386;0.016;2023-02-01T18:35:33;20.23;;;5.45;;
25359;SDS011;13311;51.386;0.016;2023-02-01T18:40:39;18.15;;;4.43;;
25359;SDS011;13311;51.386;0.016;2023-02-01T18:45:50;15.75;;;4.50;;
25359;SDS011;13311;51.386;0.016;2023-02-01T18:50:51;16.55;;;4.40;;
25359;SDS011;13311;51.386;0.016;2023-02-01T18:55:56;19.73;;;4.72;;
25359;SDS011;13311;51.386;0.016;2023-02-01T19:01:03;16.52;;;4.10;;
25359;SDS011;13311;51.386;0.016;2023-02-01T19:06:07;26.83;;;5.47;;
25359;SDS011;13311;51.386;0.016;2023-02-01T19:11:09;29.45;;;6.40;;
25359;SDS011;13311;51.386;0.016;2023-02-01T19:16:10;17.45;;;4.78;;
25359;SDS011;13311;51.386;0.016;2023-02-01T19:21:15;16.08;;;5.07;;
25359;SDS011;13311;51.386;0.016;2023-02-01T19:26:16;24.08;;;5.18;;
25359;SDS011;13311;51.386;0.016;2023-02-01T19:31:18;22.48;;;5.65;;
25359;SDS011;13311;51.386;0.016;2023-02-01T19:36:18;26.30;;;5.22;;
25359;SDS011;13311;51.386;0.016;2023-02-01T19:41:19;20.08;;;4.55;;
25359;SDS011;13311;51.386;0.016;2023-02-01T19:46:23;17.58;;;4.38;;
25359;SDS011;13311;51.386;0.016;2023-02-01T19:51:25;15.40;;;5.22;;
25359;SDS011;13311;51.386;0.016;2023-02-01T19:56:25;26.27;;;5.43;;
25359;SDS011;13311;51.386;0.016;2023-02-01T20:01:26;14.93;;;4.60;;
25359;SDS011;13311;51.386;0.016;2023-02-01T20:06:28;23.25;;;4.57;;
25359;SDS011;13311;51.386;0.016;2023-02-01T20:11:29;16.40;;;4.45;;
25359;SDS011;13311;51.386;0.016;2023-02-01T20:16:30;20.17;;;4.38;;
25359;SDS011;13311;51.386;0.016;2023-02-01T20:21:31;15.30;;;4.55;;
25359;SDS011;13311;51.386;0.016;2023-02-01T20:26:33;20.50;;;4.80;;
25359;SDS011;13311;51.386;0.016;2023-02-01T20:31:34;20.13;;;6.00;;
25359;SDS011;13311;51.386;0.016;2023-02-01T20:36:35;17.95;;;4.28;;
25359;SDS011;13311;51.386;0.016;2023-02-01T20:41:35;22.55;;;5.30;;
25359;SDS011;13311;51.386;0.016;2023-02-01T20:46:37;23.25;;;4.95;;
25359;SDS011;13311;51.386;0.016;2023-02-01T20:51:37;27.40;;;5.00;;
25359;SDS011;13311;51.386;0.016;2023-02-01T20:56:38;15.07;;;3.92;;
25359;SDS011;13311;51.386;0.016;2023-02-01T21:01:39;18.60;;;4.00;;
25359;SDS011;13311;51.386;0.016;2023-02-01T21:06:50;19.60;;;4.40;;
25359;SDS011;13311;51.386;0.016;2023-02-01T21:11:51;21.27;;;4.43;;
25359;SDS011;13311;51.386;0.016;2023-02-01T21:16:52;21.88;;;4.68;;
25359;SDS011;13311;51.386;0.016;2023-02-01T21:21:53;12.35;;;3.20;;
25359;SDS011;13311;51.386;0.016;2023-02-01T21:26:55;16.90;;;4.25;;
25359;SDS011;13311;51.386;0.016;2023-02-01T21:31:56;17.85;;;4.47;;
25359;SDS011;13311;51.386;0.016;2023-02-01T21:36:57;24.85;;;5.28;;
25359;SDS011;13311;51.386;0.016;2023-02-01T21:41:59;17.98;;;4.03;;
25359;SDS011;13311;51.386;0.016;2023-02-01T21:47:13;13.93;;;3.72;;
25359;SDS011;13311;51.386;0.016;2023-02-01T21:52:16;17.73;;;4.00;;
25359;SDS011;13311;51.386;0.016;2023-02-01T21:57:18;13.45;;;4.50;;
25359;SDS011;13311;51.386;0.016;2023-02-01T22:02:19;11.23;;;3.72;;
25359;SDS011;13311;51.386;0.016;2023-02-01T22:07:20;19.58;;;3.55;;
25359;SDS011;13311;51.386;0.016;2023-02-01T22:12:20;16.15;;;3.22;;
25359;SDS011;13311;51.386;0.016;2023-02-01T22:17:22;13.85;;;3.85;;
25359;SDS011;13311;51.386;0.016;2023-02-01T22:22:22;12.23;;;3.05;;
25359;SDS011;13311;51.386;0.016;2023-02-01T22:27:23;12.70;;;3.17;;
25359;SDS011;13311;51.386;0.016;2023-02-01T22:32:24;17.40;;;3.78;;
25359;SDS011;13311;51.386;0.016;2023-02-01T22:37:24;11.98;;;3.53;;
25359;SDS011;13311;51.386;0.016;2023-02-01T22:42:25;12.30;;;3.15;;
25359;SDS011;13311;51.386;0.016;2023-02-01T22:47:26;15.55;;;3.65;;
25359;SDS011;13311;51.386;0.016;2023-02-01T22:52:27;20.70;;;4.05;;
25359;SDS011;13311;51.386;0.016;2023-02-01T22:57:28;16.00;;;3.22;;
25359;SDS011;13311;51.386;0.016;2023-02-01T23:02:30;12.70;;;3.20;;
25359;SDS011;13311;51.386;0.016;2023-02-01T23:07:31;13.57;;;3.63;;
25359;SDS011;13311;51.386;0.016;2023-02-01T23:12:32;11.77;;;3.70;;
25359;SDS011;13311;51.386;0.016;2023-02-01T23:17:33;11.45;;;3.08;;
25359;SDS011;13311;51.386;0.016;2023-02-01T23:22:35;15.80;;;4.30;;
25359;SDS011;13311;51.386;0.016;2023-02-01T23:27:36;16.95;;;3.58;;
25359;SDS011;13311;51.386;0.016;2023-02-01T23:32:37;13.45;;;3.70;;
25359;SDS011;13311;51.386;0.016;2023-02-01T23:37:38;15.52;;;3.63;;
25359;SDS011;13311;51.386;0.016;2023-02-01T23:42:39;11.18;;;3.30;;
25359;SDS011;13311;51.386;0.016;2023-02-01T23:48:00;12.40;;;3.67;;
25359;SDS011;13311;51.386;0.016;2023-02-01T23:53:01;13.23;;;3.05;;
25359;SDS011;13311;51.386;0.016;2023-02-01T23:58:01;18.10;;;3.70;;
